Woburn, MA (01801)

2:03 PM EDT on September 30, 2014 (GMT -0400)
woburn | Change Station
CLOSE
Current Station
Personal Weather Station
Location: Woburn, MA
Elevation: 115 ft
Nearby Weather Stations

Elev 115 ft 42.48 °N, 71.15 °W | Updated 49 seconds ago

Overcast
Overcast
56.1 °F
Feels Like 56.1 °F
N
0.0
Wind Variable Wind from ENE
Gusts 4.0 mph

Today
High -- | Low -- °F
--% Chance of Precip.
Yesterday
High -- | Low -- °F
Precip. -- in
6:40 AM 6:27 PM
Waxing Crescent, 38% visible
Pressure 30.05 in
Visibility 9.0 miles
Clouds Overcast 500 ft
Dew Point 54 °F
Humidity 94%
Rainfall 0.03 in
Snow Depth Not available.
UV 2 out of 12
Pollen 1.20 out of 12
Ozone Good
PM2.5 Good
Flu Activity Not available.
METAR KBED 301756Z 05007KT 9SM OVC005 13/13 A3001 RMK AO2 SLP175 60001 T01330128 10133 20128 58006

More Conditions Fewer Conditions

Pressure 30.05 in
Visibility 9.0 miles
Clouds Overcast 500 ft
Dew Point 54 °F
Humidity 94%
Rainfall 0.03 in
Snow Depth Not available.
UV 2 out of 12
Pollen 1.20 out of 12
Ozone Good
PM2.5 Good
Flu Activity Not available.
METAR KBED 301756Z 05007KT 9SM OVC005 13/13 A3001 RMK AO2 SLP175 60001 T01330128 10133 20128 58006

More Conditions Fewer Conditions

10-Day Weather Forecast

Almanac

Astronomy

Sep. 30, 2014 Rise Set
Actual Time 6:40 AM EDT 6:27 PM EDT
Civil Twilight 6:12 AM EDT 6:55 PM EDT
Nautical Twilight 5:39 AM EDT 7:28 PM EDT
Astronomical Twilight 5:06 AM EDT 8:01 PM EDT
Moon 12:51 PM EDT 10:49 PM EDT
Length of Visible Light 12h 43m
Length of Day
11h 47m
Tomorrow will be 2m 51s shorter.
Waxing Crescent, 38% of the Moon is Illuminated
Today
Waxing Crescent
Oct 1
First Quarter
Oct 8
Full
Oct 15
Last Quarter
Oct 23
New

Today's Extremes

State Highs State Lows

Community

WunderPhotos

Upload Photos

1,757,710 photos uploaded!

Nearby

Air Quality

  Air Quality AQ Index Pollutant
Yesterday Good
PM2.5
Yesterday Good
OZONE
Current Good
OZONE
Current Good
PM2.5
Tuesday Good
PM2.5
Tuesday Good
OZONE

Snow Depth

Station Depth Elevation
No new snow has been reported.

Earthquake Activity

City Distance Mag. Time & Date
No recent earthquake activity has been reported nearby.
Minimum magnitude displayed is 2.5.

Coastal Water Temperatures

Place Temperature
Boston, MA 63.0 °F
Providence, RI 66.9 °F
Fall River, MA 68.0 °F
Conimicut Light, RI 66.9 °F

Nearby Weather Stations